sensor_id;sensor_type;location;lat;lon;timestamp;P1;durP1;ratioP1;P2;durP2;ratioP2
15055;SDS011;7626;42.674;23.284;2023-05-07T00:00:16;13.80;;;10.77;;
15055;SDS011;7626;42.674;23.284;2023-05-07T00:02:46;12.03;;;10.70;;
15055;SDS011;7626;42.674;23.284;2023-05-07T00:05:14;13.50;;;10.83;;
15055;SDS011;7626;42.674;23.284;2023-05-07T00:07:42;11.47;;;10.27;;
15055;SDS011;7626;42.674;23.284;2023-05-07T00:10:10;13.17;;;9.57;;
15055;SDS011;7626;42.674;23.284;2023-05-07T00:12:40;11.23;;;10.13;;
15055;SDS011;7626;42.674;23.284;2023-05-07T00:15:08;10.70;;;9.70;;
15055;SDS011;7626;42.674;23.284;2023-05-07T00:17:36;11.30;;;9.70;;
15055;SDS011;7626;42.674;23.284;2023-05-07T00:20:06;10.63;;;9.53;;
15055;SDS011;7626;42.674;23.284;2023-05-07T00:22:34;10.57;;;9.47;;
15055;SDS011;7626;42.674;23.284;2023-05-07T00:25:05;10.30;;;9.30;;
15055;SDS011;7626;42.674;23.284;2023-05-07T00:27:37;10.83;;;9.30;;
15055;SDS011;7626;42.674;23.284;2023-05-07T00:30:06;10.73;;;9.63;;
15055;SDS011;7626;42.674;23.284;2023-05-07T00:32:36;10.47;;;9.47;;
15055;SDS011;7626;42.674;23.284;2023-05-07T00:35:18;9.63;;;8.57;;
15055;SDS011;7626;42.674;23.284;2023-05-07T00:37:46;10.57;;;9.50;;
15055;SDS011;7626;42.674;23.284;2023-05-07T00:40:14;11.43;;;9.37;;
15055;SDS011;7626;42.674;23.284;2023-05-07T00:42:42;9.93;;;8.93;;
15055;SDS011;7626;42.674;23.284;2023-05-07T00:45:13;9.87;;;8.87;;
15055;SDS011;7626;42.674;23.284;2023-05-07T00:47:41;11.07;;;9.97;;
15055;SDS011;7626;42.674;23.284;2023-05-07T00:50:10;11.00;;;9.87;;
15055;SDS011;7626;42.674;23.284;2023-05-07T00:52:38;13.30;;;9.40;;
15055;SDS011;7626;42.674;23.284;2023-05-07T00:55:09;10.43;;;9.53;;
15055;SDS011;7626;42.674;23.284;2023-05-07T00:57:40;10.83;;;9.33;;
15055;SDS011;7626;42.674;23.284;2023-05-07T01:00:09;10.67;;;9.60;;
15055;SDS011;7626;42.674;23.284;2023-05-07T01:02:38;10.73;;;9.17;;
15055;SDS011;7626;42.674;23.284;2023-05-07T01:05:07;9.87;;;8.77;;
15055;SDS011;7626;42.674;23.284;2023-05-07T01:07:42;9.57;;;8.40;;
15055;SDS011;7626;42.674;23.284;2023-05-07T01:10:10;8.93;;;8.13;;
15055;SDS011;7626;42.674;23.284;2023-05-07T01:12:37;9.23;;;8.33;;
15055;SDS011;7626;42.674;23.284;2023-05-07T01:15:06;9.13;;;8.27;;
15055;SDS011;7626;42.674;23.284;2023-05-07T01:17:37;8.50;;;7.63;;
15055;SDS011;7626;42.674;23.284;2023-05-07T01:20:06;8.53;;;7.73;;
15055;SDS011;7626;42.674;23.284;2023-05-07T01:22:35;8.30;;;7.47;;
15055;SDS011;7626;42.674;23.284;2023-05-07T01:25:04;8.67;;;7.87;;
15055;SDS011;7626;42.674;23.284;2023-05-07T01:27:33;8.83;;;7.90;;
15055;SDS011;7626;42.674;23.284;2023-05-07T01:30:02;9.37;;;8.27;;
15055;SDS011;7626;42.674;23.284;2023-05-07T01:32:31;9.33;;;8.40;;
15055;SDS011;7626;42.674;23.284;2023-05-07T01:35:00;10.20;;;8.70;;
15055;SDS011;7626;42.674;23.284;2023-05-07T01:37:28;11.03;;;9.17;;
15055;SDS011;7626;42.674;23.284;2023-05-07T01:40:04;10.80;;;9.70;;
15055;SDS011;7626;42.674;23.284;2023-05-07T01:42:33;10.67;;;9.53;;
15055;SDS011;7626;42.674;23.284;2023-05-07T01:45:01;10.17;;;9.17;;
15055;SDS011;7626;42.674;23.284;2023-05-07T01:47:29;9.50;;;8.50;;
15055;SDS011;7626;42.674;23.284;2023-05-07T01:49:57;9.53;;;8.47;;
15055;SDS011;7626;42.674;23.284;2023-05-07T01:52:27;10.43;;;9.10;;
15055;SDS011;7626;42.674;23.284;2023-05-07T01:55:04;9.40;;;8.53;;
15055;SDS011;7626;42.674;23.284;2023-05-07T01:57:32;9.57;;;8.57;;
15055;SDS011;7626;42.674;23.284;2023-05-07T01:59:59;9.97;;;8.43;;
15055;SDS011;7626;42.674;23.284;2023-05-07T02:02:27;9.13;;;8.30;;
15055;SDS011;7626;42.674;23.284;2023-05-07T02:04:58;8.73;;;7.87;;
15055;SDS011;7626;42.674;23.284;2023-05-07T02:07:26;8.10;;;7.30;;
15055;SDS011;7626;42.674;23.284;2023-05-07T02:09:54;9.37;;;7.37;;
15055;SDS011;7626;42.674;23.284;2023-05-07T02:12:23;8.07;;;7.27;;
15055;SDS011;7626;42.674;23.284;2023-05-07T02:14:51;8.03;;;7.23;;
15055;SDS011;7626;42.674;23.284;2023-05-07T02:17:21;7.97;;;6.80;;
15055;SDS011;7626;42.674;23.284;2023-05-07T02:19:52;7.63;;;6.93;;
15055;SDS011;7626;42.674;23.284;2023-05-07T02:22:20;7.80;;;7.10;;
15055;SDS011;7626;42.674;23.284;2023-05-07T02:24:48;7.20;;;6.50;;
15055;SDS011;7626;42.674;23.284;2023-05-07T02:27:16;9.30;;;7.77;;
15055;SDS011;7626;42.674;23.284;2023-05-07T02:29:45;8.63;;;7.40;;
15055;SDS011;7626;42.674;23.284;2023-05-07T02:32:13;9.03;;;6.90;;
15055;SDS011;7626;42.674;23.284;2023-05-07T02:34:41;7.80;;;6.90;;
15055;SDS011;7626;42.674;23.284;2023-05-07T02:37:09;8.23;;;7.37;;
15055;SDS011;7626;42.674;23.284;2023-05-07T02:39:36;8.00;;;7.20;;
15055;SDS011;7626;42.674;23.284;2023-05-07T02:42:04;8.20;;;6.90;;
15055;SDS011;7626;42.674;23.284;2023-05-07T02:44:32;8.20;;;7.47;;
15055;SDS011;7626;42.674;23.284;2023-05-07T02:47:03;8.30;;;7.57;;
15055;SDS011;7626;42.674;23.284;2023-05-07T02:49:31;8.77;;;7.83;;
15055;SDS011;7626;42.674;23.284;2023-05-07T02:51:59;8.87;;;7.97;;
15055;SDS011;7626;42.674;23.284;2023-05-07T02:54:27;8.63;;;7.73;;
15055;SDS011;7626;42.674;23.284;2023-05-07T02:56:54;9.57;;;8.10;;
15055;SDS011;7626;42.674;23.284;2023-05-07T02:59:23;8.97;;;8.03;;
15055;SDS011;7626;42.674;23.284;2023-05-07T03:01:51;8.73;;;7.83;;
15055;SDS011;7626;42.674;23.284;2023-05-07T03:04:20;9.93;;;8.93;;
15055;SDS011;7626;42.674;23.284;2023-05-07T03:06:48;9.63;;;8.60;;
15055;SDS011;7626;42.674;23.284;2023-05-07T03:09:16;9.83;;;8.37;;
15055;SDS011;7626;42.674;23.284;2023-05-07T03:11:44;9.27;;;8.20;;
15055;SDS011;7626;42.674;23.284;2023-05-07T03:14:12;9.40;;;8.47;;
15055;SDS011;7626;42.674;23.284;2023-05-07T03:16:40;9.43;;;8.43;;
15055;SDS011;7626;42.674;23.284;2023-05-07T03:19:07;10.33;;;9.17;;
15055;SDS011;7626;42.674;23.284;2023-05-07T03:21:42;10.23;;;8.70;;
15055;SDS011;7626;42.674;23.284;2023-05-07T03:24:09;9.90;;;8.47;;
15055;SDS011;7626;42.674;23.284;2023-05-07T03:26:37;9.20;;;8.37;;
15055;SDS011;7626;42.674;23.284;2023-05-07T03:29:04;9.70;;;8.90;;
15055;SDS011;7626;42.674;23.284;2023-05-07T03:31:35;9.30;;;8.23;;
15055;SDS011;7626;42.674;23.284;2023-05-07T03:34:03;9.53;;;8.53;;
15055;SDS011;7626;42.674;23.284;2023-05-07T03:36:31;9.87;;;8.83;;
15055;SDS011;7626;42.674;23.284;2023-05-07T03:39:00;9.20;;;8.30;;
15055;SDS011;7626;42.674;23.284;2023-05-07T03:41:28;8.87;;;8.07;;
15055;SDS011;7626;42.674;23.284;2023-05-07T03:43:56;9.23;;;8.23;;
15055;SDS011;7626;42.674;23.284;2023-05-07T03:46:23;9.83;;;8.43;;
15055;SDS011;7626;42.674;23.284;2023-05-07T03:48:52;9.20;;;8.00;;
15055;SDS011;7626;42.674;23.284;2023-05-07T03:51:22;9.20;;;8.40;;
15055;SDS011;7626;42.674;23.284;2023-05-07T03:53:53;9.57;;;8.13;;
15055;SDS011;7626;42.674;23.284;2023-05-07T03:56:25;9.47;;;8.50;;
15055;SDS011;7626;42.674;23.284;2023-05-07T03:58:54;10.47;;;8.00;;
15055;SDS011;7626;42.674;23.284;2023-05-07T04:01:21;8.93;;;8.03;;
15055;SDS011;7626;42.674;23.284;2023-05-07T04:03:51;8.80;;;7.90;;
15055;SDS011;7626;42.674;23.284;2023-05-07T04:06:19;8.23;;;7.47;;
15055;SDS011;7626;42.674;23.284;2023-05-07T04:08:47;8.27;;;7.30;;
15055;SDS011;7626;42.674;23.284;2023-05-07T04:11:14;8.63;;;7.83;;
15055;SDS011;7626;42.674;23.284;2023-05-07T04:13:44;8.40;;;7.63;;
15055;SDS011;7626;42.674;23.284;2023-05-07T04:16:11;7.77;;;6.73;;
15055;SDS011;7626;42.674;23.284;2023-05-07T04:18:39;9.37;;;7.60;;
15055;SDS011;7626;42.674;23.284;2023-05-07T04:21:13;8.40;;;7.57;;
15055;SDS011;7626;42.674;23.284;2023-05-07T04:23:41;8.93;;;8.03;;
15055;SDS011;7626;42.674;23.284;2023-05-07T04:26:08;8.53;;;7.73;;
15055;SDS011;7626;42.674;23.284;2023-05-07T04:28:36;9.40;;;8.50;;
15055;SDS011;7626;42.674;23.284;2023-05-07T04:31:11;9.23;;;8.13;;
15055;SDS011;7626;42.674;23.284;2023-05-07T04:33:37;9.63;;;8.73;;
15055;SDS011;7626;42.674;23.284;2023-05-07T04:36:06;9.57;;;8.67;;
15055;SDS011;7626;42.674;23.284;2023-05-07T04:38:34;9.63;;;8.67;;
15055;SDS011;7626;42.674;23.284;2023-05-07T04:41:02;10.50;;;9.40;;
15055;SDS011;7626;42.674;23.284;2023-05-07T04:43:31;10.80;;;9.70;;
15055;SDS011;7626;42.674;23.284;2023-05-07T04:45:59;10.37;;;9.37;;
15055;SDS011;7626;42.674;23.284;2023-05-07T04:48:29;10.80;;;9.70;;
15055;SDS011;7626;42.674;23.284;2023-05-07T04:50:56;10.60;;;9.60;;
15055;SDS011;7626;42.674;23.284;2023-05-07T04:53:24;11.20;;;9.00;;
15055;SDS011;7626;42.674;23.284;2023-05-07T04:55:56;10.97;;;9.80;;
15055;SDS011;7626;42.674;23.284;2023-05-07T04:58:23;10.63;;;9.30;;
15055;SDS011;7626;42.674;23.284;2023-05-07T05:00:51;11.23;;;10.03;;
15055;SDS011;7626;42.674;23.284;2023-05-07T05:03:23;10.50;;;9.50;;
15055;SDS011;7626;42.674;23.284;2023-05-07T05:05:51;13.07;;;9.13;;
15055;SDS011;7626;42.674;23.284;2023-05-07T05:08:18;10.50;;;9.50;;
15055;SDS011;7626;42.674;23.284;2023-05-07T05:10:44;10.40;;;9.50;;
15055;SDS011;7626;42.674;23.284;2023-05-07T05:13:13;10.63;;;9.63;;
15055;SDS011;7626;42.674;23.284;2023-05-07T05:15:40;12.80;;;11.20;;
15055;SDS011;7626;42.674;23.284;2023-05-07T05:18:07;14.20;;;12.03;;
15055;SDS011;7626;42.674;23.284;2023-05-07T05:20:36;15.63;;;13.40;;
15055;SDS011;7626;42.674;23.284;2023-05-07T05:23:04;15.90;;;14.30;;
15055;SDS011;7626;42.674;23.284;2023-05-07T05:25:31;12.47;;;11.17;;
15055;SDS011;7626;42.674;23.284;2023-05-07T05:27:57;11.67;;;10.43;;
15055;SDS011;7626;42.674;23.284;2023-05-07T05:30:24;10.37;;;9.33;;
15055;SDS011;7626;42.674;23.284;2023-05-07T05:32:50;11.43;;;10.23;;
15055;SDS011;7626;42.674;23.284;2023-05-07T05:35:17;11.00;;;9.90;;
15055;SDS011;7626;42.674;23.284;2023-05-07T05:37:43;11.40;;;10.20;;
15055;SDS011;7626;42.674;23.284;2023-05-07T05:40:13;13.73;;;11.37;;
15055;SDS011;7626;42.674;23.284;2023-05-07T05:42:39;11.67;;;10.47;;
15055;SDS011;7626;42.674;23.284;2023-05-07T05:45:07;12.07;;;10.83;;
15055;SDS011;7626;42.674;23.284;2023-05-07T05:47:34;11.53;;;10.33;;
15055;SDS011;7626;42.674;23.284;2023-05-07T05:50:00;10.87;;;9.77;;
15055;SDS011;7626;42.674;23.284;2023-05-07T05:52:28;11.97;;;9.93;;
15055;SDS011;7626;42.674;23.284;2023-05-07T05:54:56;10.40;;;9.43;;
15055;SDS011;7626;42.674;23.284;2023-05-07T05:57:23;10.00;;;9.10;;
15055;SDS011;7626;42.674;23.284;2023-05-07T05:59:51;10.40;;;9.30;;
15055;SDS011;7626;42.674;23.284;2023-05-07T06:02:20;10.30;;;9.40;;
15055;SDS011;7626;42.674;23.284;2023-05-07T06:04:46;10.77;;;9.47;;
15055;SDS011;7626;42.674;23.284;2023-05-07T06:07:14;17.73;;;9.77;;
15055;SDS011;7626;42.674;23.284;2023-05-07T06:09:42;9.97;;;8.93;;
15055;SDS011;7626;42.674;23.284;2023-05-07T06:12:09;10.17;;;8.93;;
15055;SDS011;7626;42.674;23.284;2023-05-07T06:14:41;10.97;;;9.03;;
15055;SDS011;7626;42.674;23.284;2023-05-07T06:17:11;10.03;;;9.13;;
15055;SDS011;7626;42.674;23.284;2023-05-07T06:19:38;10.60;;;9.70;;
15055;SDS011;7626;42.674;23.284;2023-05-07T06:22:06;9.77;;;8.90;;
15055;SDS011;7626;42.674;23.284;2023-05-07T06:24:34;10.23;;;9.13;;
15055;SDS011;7626;42.674;23.284;2023-05-07T06:27:00;10.17;;;9.13;;
15055;SDS011;7626;42.674;23.284;2023-05-07T06:29:27;10.03;;;9.13;;
15055;SDS011;7626;42.674;23.284;2023-05-07T06:32:05;9.10;;;8.17;;
15055;SDS011;7626;42.674;23.284;2023-05-07T06:34:34;9.07;;;8.27;;
15055;SDS011;7626;42.674;23.284;2023-05-07T06:37:01;9.37;;;8.47;;
15055;SDS011;7626;42.674;23.284;2023-05-07T06:39:29;9.17;;;8.27;;
15055;SDS011;7626;42.674;23.284;2023-05-07T06:41:59;9.80;;;8.80;;
15055;SDS011;7626;42.674;23.284;2023-05-07T06:44:26;9.63;;;8.73;;
15055;SDS011;7626;42.674;23.284;2023-05-07T06:46:53;9.00;;;8.10;;
15055;SDS011;7626;42.674;23.284;2023-05-07T06:49:23;9.60;;;8.30;;
15055;SDS011;7626;42.674;23.284;2023-05-07T06:51:51;9.80;;;8.80;;
15055;SDS011;7626;42.674;23.284;2023-05-07T06:54:18;8.77;;;7.87;;
15055;SDS011;7626;42.674;23.284;2023-05-07T06:56:46;9.77;;;8.37;;
15055;SDS011;7626;42.674;23.284;2023-05-07T06:59:12;9.07;;;7.90;;
15055;SDS011;7626;42.674;23.284;2023-05-07T07:01:40;9.50;;;8.07;;
15055;SDS011;7626;42.674;23.284;2023-05-07T07:04:08;9.03;;;8.20;;
15055;SDS011;7626;42.674;23.284;2023-05-07T07:06:38;8.17;;;7.40;;
15055;SDS011;7626;42.674;23.284;2023-05-07T07:09:08;9.93;;;8.13;;
15055;SDS011;7626;42.674;23.284;2023-05-07T07:11:38;8.40;;;7.60;;
15055;SDS011;7626;42.674;23.284;2023-05-07T07:14:05;8.87;;;8.07;;
15055;SDS011;7626;42.674;23.284;2023-05-07T07:16:35;10.00;;;7.90;;
15055;SDS011;7626;42.674;23.284;2023-05-07T07:19:02;9.80;;;7.50;;
15055;SDS011;7626;42.674;23.284;2023-05-07T07:21:29;8.23;;;7.43;;
15055;SDS011;7626;42.674;23.284;2023-05-07T07:24:03;7.53;;;6.83;;
15055;SDS011;7626;42.674;23.284;2023-05-07T07:26:31;10.87;;;6.93;;
15055;SDS011;7626;42.674;23.284;2023-05-07T07:28:57;7.80;;;7.00;;
15055;SDS011;7626;42.674;23.284;2023-05-07T07:31:24;7.37;;;6.57;;
15055;SDS011;7626;42.674;23.284;2023-05-07T07:33:50;7.60;;;6.80;;
15055;SDS011;7626;42.674;23.284;2023-05-07T07:36:21;7.90;;;7.20;;
15055;SDS011;7626;42.674;23.284;2023-05-07T07:38:51;6.90;;;6.25;;
15055;SDS011;7626;42.674;23.284;2023-05-07T07:41:33;6.20;;;5.70;;
15055;SDS011;7626;42.674;23.284;2023-05-07T07:43:59;8.52;;;6.43;;
15055;SDS011;7626;42.674;23.284;2023-05-07T07:46:26;6.28;;;5.70;;
15055;SDS011;7626;42.674;23.284;2023-05-07T07:48:52;7.72;;;6.72;;
15055;SDS011;7626;42.674;23.284;2023-05-07T07:51:20;7.30;;;6.60;;
15055;SDS011;7626;42.674;23.284;2023-05-07T07:53:48;7.88;;;6.72;;
15055;SDS011;7626;42.674;23.284;2023-05-07T07:56:16;7.18;;;6.47;;
15055;SDS011;7626;42.674;23.284;2023-05-07T07:58:45;9.25;;;7.60;;
15055;SDS011;7626;42.674;23.284;2023-05-07T08:01:11;8.10;;;7.30;;
15055;SDS011;7626;42.674;23.284;2023-05-07T08:03:39;9.02;;;8.10;;
15055;SDS011;7626;42.674;23.284;2023-05-07T08:06:07;9.23;;;8.32;;
15055;SDS011;7626;42.674;23.284;2023-05-07T08:08:34;9.18;;;8.35;;
15055;SDS011;7626;42.674;23.284;2023-05-07T08:11:01;7.97;;;7.18;;
15055;SDS011;7626;42.674;23.284;2023-05-07T08:13:28;8.60;;;7.70;;
15055;SDS011;7626;42.674;23.284;2023-05-07T08:15:56;9.98;;;6.88;;
15055;SDS011;7626;42.674;23.284;2023-05-07T08:18:25;6.85;;;6.10;;
15055;SDS011;7626;42.674;23.284;2023-05-07T08:20:53;6.57;;;5.95;;
15055;SDS011;7626;42.674;23.284;2023-05-07T08:23:20;7.43;;;6.82;;
15055;SDS011;7626;42.674;23.284;2023-05-07T08:25:46;6.95;;;6.13;;
15055;SDS011;7626;42.674;23.284;2023-05-07T08:28:13;7.38;;;6.63;;
15055;SDS011;7626;42.674;23.284;2023-05-07T08:30:41;7.22;;;6.53;;
15055;SDS011;7626;42.674;23.284;2023-05-07T08:33:10;7.05;;;6.35;;
15055;SDS011;7626;42.674;23.284;2023-05-07T08:35:37;8.70;;;7.07;;
15055;SDS011;7626;42.674;23.284;2023-05-07T08:38:07;8.93;;;8.15;;
15055;SDS011;7626;42.674;23.284;2023-05-07T08:40:35;8.70;;;7.50;;
15055;SDS011;7626;42.674;23.284;2023-05-07T08:43:03;8.10;;;6.97;;
15055;SDS011;7626;42.674;23.284;2023-05-07T08:45:32;6.90;;;6.22;;
15055;SDS011;7626;42.674;23.284;2023-05-07T08:47:59;7.18;;;6.53;;
15055;SDS011;7626;42.674;23.284;2023-05-07T08:50:27;7.97;;;7.05;;
15055;SDS011;7626;42.674;23.284;2023-05-07T08:52:54;8.23;;;7.25;;
15055;SDS011;7626;42.674;23.284;2023-05-07T08:55:22;9.00;;;8.05;;
15055;SDS011;7626;42.674;23.284;2023-05-07T08:57:51;8.00;;;7.30;;
15055;SDS011;7626;42.674;23.284;2023-05-07T09:00:19;7.60;;;6.65;;
15055;SDS011;7626;42.674;23.284;2023-05-07T09:02:46;7.43;;;6.75;;
15055;SDS011;7626;42.674;23.284;2023-05-07T09:05:13;8.63;;;7.82;;
15055;SDS011;7626;42.674;23.284;2023-05-07T09:07:41;9.02;;;7.70;;
15055;SDS011;7626;42.674;23.284;2023-05-07T09:10:12;7.45;;;6.65;;
15055;SDS011;7626;42.674;23.284;2023-05-07T09:12:40;8.30;;;7.50;;
15055;SDS011;7626;42.674;23.284;2023-05-07T09:15:08;8.18;;;7.38;;
15055;SDS011;7626;42.674;23.284;2023-05-07T09:17:35;8.00;;;7.20;;
15055;SDS011;7626;42.674;23.284;2023-05-07T09:20:02;28.40;;;8.65;;
15055;SDS011;7626;42.674;23.284;2023-05-07T09:22:31;10.57;;;6.95;;
15055;SDS011;7626;42.674;23.284;2023-05-07T09:24:59;8.27;;;7.13;;
15055;SDS011;7626;42.674;23.284;2023-05-07T09:27:25;8.40;;;6.80;;
15055;SDS011;7626;42.674;23.284;2023-05-07T09:29:53;7.32;;;6.63;;
15055;SDS011;7626;42.674;23.284;2023-05-07T09:32:20;6.78;;;6.15;;
15055;SDS011;7626;42.674;23.284;2023-05-07T09:34:47;6.28;;;5.68;;
15055;SDS011;7626;42.674;23.284;2023-05-07T09:37:15;6.55;;;5.95;;
15055;SDS011;7626;42.674;23.284;2023-05-07T09:39:44;6.57;;;5.85;;
15055;SDS011;7626;42.674;23.284;2023-05-07T09:42:12;6.43;;;5.80;;
15055;SDS011;7626;42.674;23.284;2023-05-07T09:44:40;7.43;;;5.95;;
15055;SDS011;7626;42.674;23.284;2023-05-07T09:47:08;7.90;;;5.85;;
15055;SDS011;7626;42.674;23.284;2023-05-07T09:49:35;7.07;;;6.05;;
15055;SDS011;7626;42.674;23.284;2023-05-07T09:52:02;6.13;;;5.53;;
15055;SDS011;7626;42.674;23.284;2023-05-07T09:54:32;6.25;;;5.75;;
15055;SDS011;7626;42.674;23.284;2023-05-07T09:56:59;6.25;;;5.65;;
15055;SDS011;7626;42.674;23.284;2023-05-07T09:59:28;5.60;;;5.10;;
15055;SDS011;7626;42.674;23.284;2023-05-07T10:01:56;5.90;;;5.40;;
15055;SDS011;7626;42.674;23.284;2023-05-07T10:04:23;6.65;;;6.05;;
15055;SDS011;7626;42.674;23.284;2023-05-07T10:06:52;6.90;;;6.10;;
15055;SDS011;7626;42.674;23.284;2023-05-07T10:09:20;6.28;;;5.60;;
15055;SDS011;7626;42.674;23.284;2023-05-07T10:11:48;6.70;;;6.10;;
15055;SDS011;7626;42.674;23.284;2023-05-07T10:14:16;6.97;;;6.30;;
15055;SDS011;7626;42.674;23.284;2023-05-07T10:16:45;6.53;;;5.93;;
15055;SDS011;7626;42.674;23.284;2023-05-07T10:19:15;6.65;;;6.05;;
15055;SDS011;7626;42.674;23.284;2023-05-07T10:21:44;6.10;;;5.50;;
15055;SDS011;7626;42.674;23.284;2023-05-07T10:24:15;7.88;;;5.78;;
15055;SDS011;7626;42.674;23.284;2023-05-07T10:26:45;5.93;;;5.20;;
15055;SDS011;7626;42.674;23.284;2023-05-07T10:29:15;10.15;;;5.53;;
15055;SDS011;7626;42.674;23.284;2023-05-07T10:31:50;6.57;;;5.60;;
15055;SDS011;7626;42.674;23.284;2023-05-07T10:34:22;6.63;;;5.22;;
15055;SDS011;7626;42.674;23.284;2023-05-07T10:36:51;5.35;;;4.90;;
15055;SDS011;7626;42.674;23.284;2023-05-07T10:39:21;5.93;;;5.30;;
15055;SDS011;7626;42.674;23.284;2023-05-07T10:41:48;5.60;;;5.10;;
15055;SDS011;7626;42.674;23.284;2023-05-07T10:44:25;5.45;;;4.95;;
15055;SDS011;7626;42.674;23.284;2023-05-07T10:47:05;5.32;;;4.80;;
15055;SDS011;7626;42.674;23.284;2023-05-07T10:49:36;5.45;;;4.95;;
15055;SDS011;7626;42.674;23.284;2023-05-07T10:52:13;5.00;;;4.60;;
15055;SDS011;7626;42.674;23.284;2023-05-07T10:54:42;5.88;;;5.38;;
15055;SDS011;7626;42.674;23.284;2023-05-07T10:59:56;6.53;;;5.28;;
15055;SDS011;7626;42.674;23.284;2023-05-07T11:02:27;5.35;;;4.90;;
15055;SDS011;7626;42.674;23.284;2023-05-07T11:05:19;5.75;;;5.00;;
15055;SDS011;7626;42.674;23.284;2023-05-07T11:07:53;5.57;;;5.00;;
15055;SDS011;7626;42.674;23.284;2023-05-07T11:10:23;6.53;;;5.18;;
15055;SDS011;7626;42.674;23.284;2023-05-07T11:13:14;5.32;;;4.82;;
15055;SDS011;7626;42.674;23.284;2023-05-07T11:15:42;4.88;;;4.38;;
15055;SDS011;7626;42.674;23.284;2023-05-07T11:18:14;5.55;;;4.97;;
15055;SDS011;7626;42.674;23.284;2023-05-07T11:20:45;5.15;;;4.75;;
15055;SDS011;7626;42.674;23.284;2023-05-07T11:26:00;6.68;;;4.85;;
15055;SDS011;7626;42.674;23.284;2023-05-07T11:28:29;4.65;;;4.28;;
15055;SDS011;7626;42.674;23.284;2023-05-07T11:30:58;6.13;;;4.32;;
15055;SDS011;7626;42.674;23.284;2023-05-07T11:33:26;5.57;;;4.90;;
15055;SDS011;7626;42.674;23.284;2023-05-07T11:35:54;5.03;;;4.60;;
15055;SDS011;7626;42.674;23.284;2023-05-07T11:38:22;4.85;;;4.40;;
15055;SDS011;7626;42.674;23.284;2023-05-07T11:40:50;5.40;;;4.55;;
15055;SDS011;7626;42.674;23.284;2023-05-07T11:43:18;4.72;;;4.32;;
15055;SDS011;7626;42.674;23.284;2023-05-07T11:45:47;5.22;;;4.72;;
15055;SDS011;7626;42.674;23.284;2023-05-07T11:48:16;5.35;;;4.95;;
15055;SDS011;7626;42.674;23.284;2023-05-07T11:50:52;4.85;;;4.35;;
15055;SDS011;7626;42.674;23.284;2023-05-07T11:53:22;5.10;;;4.60;;
15055;SDS011;7626;42.674;23.284;2023-05-07T11:55:52;5.70;;;4.70;;
15055;SDS011;7626;42.674;23.284;2023-05-07T11:58:21;4.97;;;4.57;;
15055;SDS011;7626;42.674;23.284;2023-05-07T12:00:57;4.90;;;4.50;;
15055;SDS011;7626;42.674;23.284;2023-05-07T12:03:25;5.00;;;4.57;;
15055;SDS011;7626;42.674;23.284;2023-05-07T12:05:52;4.97;;;4.55;;
15055;SDS011;7626;42.674;23.284;2023-05-07T12:08:23;6.32;;;4.53;;
15055;SDS011;7626;42.674;23.284;2023-05-07T12:10:54;4.63;;;4.22;;
15055;SDS011;7626;42.674;23.284;2023-05-07T12:13:25;5.10;;;4.60;;
15055;SDS011;7626;42.674;23.284;2023-05-07T12:15:55;4.65;;;4.25;;
15055;SDS011;7626;42.674;23.284;2023-05-07T12:18:23;4.95;;;4.55;;
15055;SDS011;7626;42.674;23.284;2023-05-07T12:20:51;5.10;;;4.60;;
15055;SDS011;7626;42.674;23.284;2023-05-07T12:23:18;4.93;;;4.50;;
15055;SDS011;7626;42.674;23.284;2023-05-07T12:25:46;4.20;;;3.88;;
15055;SDS011;7626;42.674;23.284;2023-05-07T12:28:13;5.72;;;4.07;;
15055;SDS011;7626;42.674;23.284;2023-05-07T12:30:40;4.05;;;3.75;;
15055;SDS011;7626;42.674;23.284;2023-05-07T12:33:10;4.65;;;4.18;;
15055;SDS011;7626;42.674;23.284;2023-05-07T12:35:37;4.53;;;4.13;;
15055;SDS011;7626;42.674;23.284;2023-05-07T12:38:07;4.22;;;3.83;;
15055;SDS011;7626;42.674;23.284;2023-05-07T12:40:37;4.38;;;3.97;;
15055;SDS011;7626;42.674;23.284;2023-05-07T12:43:04;4.22;;;3.83;;
15055;SDS011;7626;42.674;23.284;2023-05-07T12:45:31;4.68;;;4.28;;
15055;SDS011;7626;42.674;23.284;2023-05-07T12:48:00;4.85;;;4.18;;
15055;SDS011;7626;42.674;23.284;2023-05-07T12:50:31;4.65;;;4.00;;
15055;SDS011;7626;42.674;23.284;2023-05-07T12:52:59;4.13;;;3.83;;
15055;SDS011;7626;42.674;23.284;2023-05-07T12:55:26;5.07;;;3.90;;
15055;SDS011;7626;42.674;23.284;2023-05-07T12:57:55;4.22;;;3.80;;
15055;SDS011;7626;42.674;23.284;2023-05-07T13:00:35;5.30;;;3.78;;
15055;SDS011;7626;42.674;23.284;2023-05-07T13:03:02;3.72;;;3.35;;
15055;SDS011;7626;42.674;23.284;2023-05-07T13:05:28;3.80;;;3.50;;
15055;SDS011;7626;42.674;23.284;2023-05-07T13:07:56;4.03;;;3.55;;
15055;SDS011;7626;42.674;23.284;2023-05-07T13:10:23;4.53;;;4.13;;
15055;SDS011;7626;42.674;23.284;2023-05-07T13:12:51;4.47;;;4.03;;
15055;SDS011;7626;42.674;23.284;2023-05-07T13:15:20;4.55;;;4.22;;
15055;SDS011;7626;42.674;23.284;2023-05-07T13:17:47;4.30;;;3.90;;
15055;SDS011;7626;42.674;23.284;2023-05-07T13:20:13;4.45;;;4.05;;
15055;SDS011;7626;42.674;23.284;2023-05-07T13:22:41;4.95;;;4.05;;
15055;SDS011;7626;42.674;23.284;2023-05-07T13:25:14;5.07;;;4.57;;
15055;SDS011;7626;42.674;23.284;2023-05-07T13:27:41;4.70;;;4.30;;
15055;SDS011;7626;42.674;23.284;2023-05-07T13:30:09;5.18;;;4.20;;
15055;SDS011;7626;42.674;23.284;2023-05-07T13:32:36;4.70;;;4.10;;
15055;SDS011;7626;42.674;23.284;2023-05-07T13:35:02;4.50;;;4.10;;
15055;SDS011;7626;42.674;23.284;2023-05-07T13:37:30;4.28;;;3.88;;
15055;SDS011;7626;42.674;23.284;2023-05-07T13:39:57;4.20;;;3.80;;
15055;SDS011;7626;42.674;23.284;2023-05-07T13:42:24;4.32;;;3.92;;
15055;SDS011;7626;42.674;23.284;2023-05-07T13:44:52;5.03;;;4.53;;
15055;SDS011;7626;42.674;23.284;2023-05-07T13:47:19;4.60;;;3.85;;
15055;SDS011;7626;42.674;23.284;2023-05-07T13:49:47;5.75;;;4.30;;
15055;SDS011;7626;42.674;23.284;2023-05-07T13:52:15;4.85;;;4.22;;
15055;SDS011;7626;42.674;23.284;2023-05-07T13:54:42;4.50;;;4.10;;
15055;SDS011;7626;42.674;23.284;2023-05-07T13:57:10;5.32;;;4.20;;
15055;SDS011;7626;42.674;23.284;2023-05-07T13:59:38;4.32;;;4.00;;
15055;SDS011;7626;42.674;23.284;2023-05-07T14:02:05;4.57;;;4.18;;
15055;SDS011;7626;42.674;23.284;2023-05-07T14:04:34;4.70;;;4.30;;
15055;SDS011;7626;42.674;23.284;2023-05-07T14:07:00;4.65;;;4.20;;
15055;SDS011;7626;42.674;23.284;2023-05-07T14:09:27;4.82;;;4.22;;
15055;SDS011;7626;42.674;23.284;2023-05-07T14:11:53;5.13;;;3.83;;
15055;SDS011;7626;42.674;23.284;2023-05-07T14:14:20;4.53;;;4.13;;
15055;SDS011;7626;42.674;23.284;2023-05-07T14:16:49;6.72;;;4.20;;
15055;SDS011;7626;42.674;23.284;2023-05-07T14:19:15;4.90;;;4.32;;
15055;SDS011;7626;42.674;23.284;2023-05-07T14:21:42;4.88;;;4.47;;
15055;SDS011;7626;42.674;23.284;2023-05-07T14:24:09;4.95;;;4.40;;
15055;SDS011;7626;42.674;23.284;2023-05-07T14:26:37;5.18;;;4.40;;
15055;SDS011;7626;42.674;23.284;2023-05-07T14:29:05;4.65;;;4.25;;
15055;SDS011;7626;42.674;23.284;2023-05-07T14:31:35;4.50;;;4.10;;
15055;SDS011;7626;42.674;23.284;2023-05-07T14:34:05;4.82;;;4.15;;
15055;SDS011;7626;42.674;23.284;2023-05-07T14:36:35;4.55;;;4.13;;
15055;SDS011;7626;42.674;23.284;2023-05-07T14:39:11;4.47;;;4.07;;
15055;SDS011;7626;42.674;23.284;2023-05-07T14:41:39;5.28;;;4.15;;
15055;SDS011;7626;42.674;23.284;2023-05-07T14:44:07;4.63;;;4.22;;
15055;SDS011;7626;42.674;23.284;2023-05-07T14:46:36;4.88;;;4.38;;
15055;SDS011;7626;42.674;23.284;2023-05-07T14:49:05;4.80;;;4.32;;
15055;SDS011;7626;42.674;23.284;2023-05-07T14:51:41;7.03;;;4.35;;
15055;SDS011;7626;42.674;23.284;2023-05-07T14:54:09;7.00;;;4.55;;
15055;SDS011;7626;42.674;23.284;2023-05-07T14:56:39;7.45;;;4.43;;